This is the latest recevied weather packets stored in our database for station/object KB3KAV. If no packets are shown the sender has not sent any weather packets the latest 10 day(s).
| Time | Temp. | Humidity | Pressure | Rain* | Wind** | Luminosity | Snow |
|---|---|---|---|---|---|---|---|
| 1787436548 | 24.44° C | 70% | 1042.3 hPa | 0 mm | - | 177 W/m² | - |
| 1787435948 | 25° C | 68% | 1042.4 hPa | 0 mm | - | 265 W/m² | - |
| 1787435346 | 25.56° C | 67% | 1042.3 hPa | 0 mm | - | 265 W/m² | - |
| 1787434743 | 25° C | 70% | 1042.2 hPa | 0 mm | - | 278 W/m² | - |
| 1787434140 | 25° C | 70% | 1042.4 hPa | 0 mm | - | 127 W/m² | - |
| 1787433537 | 25° C | 71% | 1042.4 hPa | 0 mm | - | 338 W/m² | - |
| 1787432935 | 24.44° C | 73% | 1042.6 hPa | 0 mm | - | 196 W/m² | - |
| 1787432335 | 24.44° C | 71% | 1042.8 hPa | 0 mm | - | 214 W/m² | - |
| 1787431730 | 23.89° C | 71% | 1042.8 hPa | 0 mm | - | 383 W/m² | - |
| 1787431128 | 24.44° C | 69% | 1042.7 hPa | 0 mm | - | 433 W/m² | - |
| 1787430525 | 25° C | 69% | 1043.2 hPa | 0 mm | - | 194 W/m² | - |
| 1787429924 | 24.44° C | 70% | 1043.1 hPa | 0 mm | - | 179 W/m² | - |
| 1787429319 | 26.11° C | 66% | 1042.8 hPa | 0 mm | - | 586 W/m² | - |
| 1787428716 | 26.11° C | 65% | 1043.3 hPa | 0 mm | - | 542 W/m² | - |
| 1787428112 | 25.56° C | 66% | 1043.6 hPa | 0 mm | - | 553 W/m² | - |
| 1787427509 | 25° C | 68% | 1043.7 hPa | 0 mm | - | 567 W/m² | - |
| 1787426906 | 25.56° C | 67% | 1043.9 hPa | 0 mm | - | 694 W/m² | - |
| 1787426303 | 24.44° C | 70% | 1044 hPa | 0 mm | - | 269 W/m² | - |
| 1787425701 | 24.44° C | 70% | 1043.8 hPa | 0 mm | - | 201 W/m² | - |
| 1787425097 | 24.44° C | 69% | 1044 hPa | 0 mm | - | 686 W/m² | - |
| 1787424498 | 25° C | 67% | 1043.9 hPa | 0 mm | - | 531 W/m² | - |
| 1787423895 | 25° C | 68% | 1044.1 hPa | 0 mm | - | 348 W/m² | - |
| 1787423292 | 23.89° C | 72% | 1044.4 hPa | 0 mm | - | 428 W/m² | - |
| 1787422690 | 23.89° C | 74% | 1044.2 hPa | 0 mm | - | 104 W/m² | - |
| 1787422087 | 23.89° C | 74% | 1044.4 hPa | 0 mm | - | 192 W/m² | - |
* Rain latest hour (hover to see other rain measurements)
** Current wind speed in m/s (hover to see current wind gust speed)